Time;durP1;ratioP1;P1;durP2;ratioP2;P2;SDS_P1;SDS_P2;PMS_P1;PMS_P2;Temp;Humidity;BMP_temperature;BMP_pressure;BME280_temperature;BME280_humidity;BME280_pressure;Samples;Min_cycle;Max_cycle;Signal;HPM_P1;HPM_P2
2023/09/18 00:04:26;;;;;;;11.40;9.10;;;;;;;16.64;80.73;98751.70;435269;1257;99272;-42
2023/09/18 00:14:32;;;;;;;13.80;9.90;;;;;;;16.61;80.71;98745.25;435292;1260;111727;-42
2023/09/18 00:24:37;;;;;;;18.20;10.30;;;;;;;16.52;80.56;98734.88;435320;1251;108031;-42
2023/09/18 00:34:43;;;;;;;13.50;10.20;;;;;;;16.39;80.86;98732.89;434742;1257;716177;-43
2023/09/18 00:44:47;;;;;;;13.40;10.80;;;;;;;16.29;81.38;98735.05;435200;1251;108086;-42
2023/09/18 00:54:52;;;;;;;15.60;10.90;;;;;;;16.26;81.59;98738.13;435215;1257;99237;-42
2023/09/18 01:04:57;;;;;;;13.10;10.40;;;;;;;16.23;81.49;98731.89;435279;1256;111689;-41
2023/09/18 01:15:06;;;;;;;15.10;11.60;;;;;;;16.09;81.72;98727.65;435172;1258;108703;-43
2023/09/18 01:25:13;;;;;;;14.80;10.80;;;;;;;15.95;81.90;98722.96;435320;1257;99194;-42
2023/09/18 01:35:20;;;;;;;14.10;11.10;;;;;;;15.89;82.30;98723.54;435195;1257;108075;-42
2023/09/18 01:45:26;;;;;;;17.30;11.90;;;;;;;15.87;82.73;98725.61;436074;1251;98833;-42
2023/09/18 01:55:32;;;;;;;15.60;11.70;;;;;;;15.88;82.89;98726.58;435307;1256;111077;-41
2023/09/18 02:05:41;;;;;;;16.60;12.60;;;;;;;15.83;83.08;98732.67;435175;1251;109461;-42
2023/09/18 02:15:48;;;;;;;15.60;11.90;;;;;;;15.76;83.42;98727.16;435298;1256;99273;-42
2023/09/18 02:25:56;;;;;;;22.00;12.60;;;;;;;15.69;83.85;98717.76;435096;1256;108269;-41
2023/09/18 02:36:05;;;;;;;18.40;13.20;;;;;;;15.66;84.07;98721.73;435232;1256;98096;-43
2023/09/18 02:46:12;;;;;;;16.30;11.70;;;;;;;15.65;84.15;98710.86;435198;1251;112852;-43
2023/09/18 02:56:19;;;;;;;18.50;10.80;;;;;;;15.71;84.53;98702.98;435185;1256;107165;-42
2023/09/18 03:06:26;;;;;;;14.50;10.10;;;;;;;15.88;84.14;98698.52;435133;1256;98824;-42
2023/09/18 03:26:40;;;;;;;14.40;10.60;;;;;;;15.87;83.79;98680.44;435114;1256;98357;-43
2023/09/18 03:36:47;;;;;;;14.40;10.00;;;;;;;15.85;84.11;98678.94;435119;1255;112588;-42
2023/09/18 03:46:54;;;;;;;16.10;10.20;;;;;;;15.94;84.10;98674.75;435130;1255;107659;-42
2023/09/18 03:57:01;;;;;;;16.70;10.80;;;;;;;15.89;84.09;98659.59;435139;1256;99262;-42
2023/09/18 04:07:08;;;;;;;17.60;11.20;;;;;;;15.84;84.12;98657.98;435235;1256;108241;-42
2023/09/18 04:27:22;;;;;;;18.00;12.60;;;;;;;15.65;84.03;98644.48;435193;1253;111207;-41
2023/09/18 04:37:29;;;;;;;19.80;11.90;;;;;;;15.61;84.43;98642.02;435196;1256;108151;-43
2023/09/18 04:57:42;;;;;;;19.00;11.70;;;;;;;15.69;84.68;98627.65;435083;1256;107329;-43
2023/09/18 05:07:49;;;;;;;18.10;12.60;;;;;;;15.78;84.85;98626.23;435224;1256;99247;-41
2023/09/18 05:17:57;;;;;;;27.50;14.10;;;;;;;16.00;85.10;98627.92;435368;1255;112100;-42
2023/09/18 05:28:05;;;;;;;20.20;13.30;;;;;;;16.71;85.43;98620.19;435028;1256;108501;-41
2023/09/18 05:48:21;;;;;;;22.50;14.80;;;;;;;17.36;83.90;98607.16;435226;1256;108234;-43
2023/09/18 05:58:28;;;;;;;28.30;15.20;;;;;;;17.61;83.76;98594.41;435228;1256;98001;-43
2023/09/18 06:08:36;;;;;;;27.70;15.30;;;;;;;18.59;83.69;98586.94;435075;1256;113529;-41
2023/09/18 06:18:44;;;;;;;22.90;14.70;;;;;;;19.70;82.52;98578.54;435173;1256;106646;-43
2023/09/18 06:28:52;;;;;;;21.90;13.20;;;;;;;20.72;80.62;98580.02;435217;1255;99218;-42
2023/09/18 06:49:09;;;;;;;21.80;16.00;;;;;;;21.49;77.61;98573.42;435169;1252;98073;-43
2023/09/18 07:09:19;;;;;;;22.90;16.00;;;;;;;21.79;74.62;98577.34;435177;1253;108031;-42
2023/09/18 07:19:26;;;;;;;23.60;16.90;;;;;;;21.76;75.05;98571.36;435305;1256;99333;-41
2023/09/18 07:29:34;;;;;;;20.70;16.00;;;;;;;22.00;74.67;98572.91;435101;1256;107455;-42
2023/09/18 07:49:44;;;;;;;18.60;15.00;;;;;;;22.85;73.63;98564.91;435044;1253;111897;-42
2023/09/18 07:59:48;;;;;;;22.80;16.20;;;;;;;23.62;72.34;98553.88;435199;1253;107390;-42
2023/09/18 08:09:56;;;;;;;22.20;15.70;;;;;;;24.06;69.77;98548.60;434997;1253;98043;-40
2023/09/18 08:30:09;;;;;;;18.10;14.70;;;;;;;24.83;65.74;98542.20;435220;1253;99327;-41
2023/09/18 08:40:16;;;;;;;16.70;15.20;;;;;;;25.01;63.77;98532.17;435227;1253;111458;-41
2023/09/18 08:50:22;;;;;;;16.20;14.70;;;;;;;25.38;63.52;98524.45;435208;1256;107631;-42
2023/09/18 09:00:30;;;;;;;18.90;15.10;;;;;;;25.87;62.79;98513.48;435361;1255;97925;-42
2023/09/18 09:41:09;;;;;;;16.50;15.00;;;;;;;26.11;57.79;98493.66;435096;1251;108197;-40
2023/09/18 10:01:28;;;;;;;17.90;16.00;;;;;;;26.35;56.70;98475.52;435204;1254;108513;-42
2023/09/18 10:21:50;;;;;;;17.10;15.40;;;;;;;26.44;54.62;98458.08;435175;1257;113286;-41
2023/09/18 10:31:56;;;;;;;16.00;14.50;;;;;;;26.53;53.47;98449.52;435214;1256;108437;-41
2023/09/18 10:42:06;;;;;;;16.40;14.80;;;;;;;26.73;53.85;98443.43;435113;1254;99311;-41
2023/09/18 10:52:14;;;;;;;15.60;14.10;;;;;;;26.79;53.42;98442.05;435428;1251;106738;-41
2023/09/18 11:23:00;;;;;;;24.30;15.10;;;;;;;26.67;51.07;98414.70;435297;1253;108591;-40
2023/09/18 11:33:08;;;;;;;19.70;13.70;;;;;;;26.62;50.42;98404.70;435278;1254;99257;-41
2023/09/18 11:53:30;;;;;;;15.50;13.80;;;;;;;26.75;50.96;98385.05;435288;1256;97925;-41
2023/09/18 12:03:37;;;;;;;15.80;14.40;;;;;;;26.74;49.80;98374.23;435215;1254;111232;-41
2023/09/18 12:13:46;;;;;;;15.40;13.80;;;;;;;26.63;50.38;98363.75;435205;1256;108219;-42
2023/09/18 12:23:53;;;;;;;16.80;14.40;;;;;;;26.53;49.92;98351.48;435153;1265;99295;-43
2023/09/18 12:34:00;;;;;;;22.50;16.00;;;;;;;26.44;50.25;98337.46;434876;1264;382468;-42
2023/09/18 12:44:06;;;;;;;21.00;15.70;;;;;;;26.39;51.13;98326.39;435174;1255;98834;-42
2023/09/18 12:54:13;;;;;;;18.70;14.40;;;;;;;26.37;50.84;98321.27;435228;1257;114638;-42
2023/09/18 13:04:22;;;;;;;21.30;15.20;;;;;;;26.22;51.09;98302.61;435203;1255;107881;-41
2023/09/18 13:14:28;;;;;;;15.00;13.70;;;;;;;26.50;51.21;98298.83;435313;1256;99262;-41
2023/09/18 13:24:37;;;;;;;24.50;15.10;;;;;;;26.64;50.07;98284.52;435145;1255;107883;-41
2023/09/18 13:34:45;;;;;;;14.40;12.90;;;;;;;26.64;50.27;98279.66;435284;1264;97983;-40
2023/09/18 13:54:57;;;;;;;;;;;;;;;26.64;49.04;98264.09;435226;1254;108683;-41
2023/09/18 14:25:16;;;;;;;11.70;9.70;;;;;;;26.61;46.92;98241.13;435595;1257;99272;-42
2023/09/18 14:45:29;;;;;;;10.90;9.30;;;;;;;26.10;47.93;98222.96;435141;1257;107958;-42
2023/09/18 14:55:36;;;;;;;12.60;10.20;;;;;;;26.02;47.90;98210.27;435369;1254;98008;-42
2023/09/18 15:05:43;;;;;;;10.30;9.40;;;;;;;25.88;48.23;98201.33;435185;1256;108302;-44
2023/09/18 15:15:51;;;;;;;11.30;9.70;;;;;;;25.75;49.13;98194.42;435277;1254;99220;-41
2023/09/18 15:25:57;;;;;;;48.00;12.40;;;;;;;25.51;49.39;98190.33;435140;1256;112989;-42
2023/09/18 15:36:05;;;;;;;15.70;9.70;;;;;;;25.26;49.95;98185.33;435200;1257;108486;-43
2023/09/18 15:46:13;;;;;;;11.20;10.10;;;;;;;24.96;50.26;98180.45;435177;1251;99221;-42
2023/09/18 16:06:26;;;;;;;13.60;9.90;;;;;;;24.19;51.54;98159.16;435243;1251;99276;-41
2023/09/18 16:16:34;;;;;;;16.30;10.00;;;;;;;23.85;52.21;98151.46;435306;1251;110193;-41
2023/09/18 16:26:40;;;;;;;15.20;10.80;;;;;;;23.49;53.11;98140.03;435186;1251;108148;-42
2023/09/18 16:36:46;;;;;;;15.10;11.50;;;;;;;23.13;53.75;98138.05;435292;1251;99226;-41
2023/09/18 16:46:52;;;;;;;18.80;10.80;;;;;;;22.71;54.54;98130.15;435241;1251;107513;-42
2023/09/18 17:17:10;;;;;;;24.90;14.60;;;;;;;21.78;56.88;98120.16;435133;1255;109151;-42
2023/09/18 17:27:17;;;;;;;23.50;16.00;;;;;;;21.69;57.73;98121.06;435280;1252;99200;-43
2023/09/18 17:37:25;;;;;;;53.30;29.00;;;;;;;21.61;58.01;98128.91;435126;1258;109398;-43
2023/09/18 17:47:32;;;;;;;64.70;33.30;;;;;;;21.41;58.67;98132.37;435161;1251;99260;-42
2023/09/18 17:57:40;;;;;;;52.70;25.00;;;;;;;21.13;59.15;98128.29;435296;1254;111044;-42
2023/09/18 18:07:47;;;;;;;37.90;18.80;;;;;;;20.92;59.85;98126.17;435155;1256;107188;-42
2023/09/18 18:17:54;;;;;;;21.90;15.70;;;;;;;20.85;60.13;98126.36;435215;1251;99253;-41
2023/09/18 18:28:01;;;;;;;22.70;17.30;;;;;;;20.66;60.68;98121.89;435168;1253;108129;-41
2023/09/18 18:38:10;;;;;;;24.00;19.20;;;;;;;20.47;61.08;98124.40;435238;1251;99222;-41
2023/09/18 18:58:24;;;;;;;22.80;15.60;;;;;;;20.08;61.80;98133.40;435221;1256;108688;-42
2023/09/18 19:08:32;;;;;;;19.60;15.00;;;;;;;19.91;62.25;98130.84;436010;1256;98849;-41
2023/09/18 19:18:39;;;;;;;22.60;17.60;;;;;;;19.81;62.79;98112.92;435321;1254;108028;-41
2023/09/18 19:28:47;;;;;;;26.10;18.40;;;;;;;19.54;63.22;98107.59;435393;1253;98020;-41
2023/09/18 19:59:06;;;;;;;20.80;15.80;;;;;;;19.31;64.66;98083.52;435161;1253;98101;-42
2023/09/18 20:09:13;;;;;;;24.80;16.90;;;;;;;19.32;64.86;98082.55;435127;1256;108437;-40
2023/09/18 20:29:26;;;;;;;;;;;;;;;19.21;65.28;98074.27;435248;1252;111605;-41
2023/09/18 20:49:39;;;;;;;21.60;15.70;;;;;;;19.08;65.80;98057.09;435264;1252;99278;-42
2023/09/18 20:59:45;;;;;;;18.60;16.50;;;;;;;19.09;66.01;98050.54;435278;1251;107803;-41
2023/09/18 21:09:52;;;;;;;20.50;16.10;;;;;;;19.00;66.06;98047.50;435320;1251;97987;-42
2023/09/18 21:19:59;;;;;;;20.10;14.20;;;;;;;18.92;66.18;98045.09;435171;1256;111794;-41
2023/09/18 21:40:11;;;;;;;25.20;18.00;;;;;;;18.84;66.73;98038.07;435226;1256;99202;-42
2023/09/18 22:10:34;;;;;;;26.00;17.50;;;;;;;18.19;68.33;98016.07;435232;1251;110834;-42
2023/09/18 22:20:41;;;;;;;29.90;21.50;;;;;;;18.07;68.59;98003.73;435176;1253;108596;-41
2023/09/18 22:30:49;;;;;;;24.20;21.00;;;;;;;17.92;69.44;97993.91;435107;1253;99327;-42
2023/09/18 23:01:42;;;;;;;29.20;21.30;;;;;;;17.58;70.74;97981.70;435214;1256;111204;-41
2023/09/18 23:11:48;;;;;;;28.70;21.80;;;;;;;17.47;71.13;97978.89;435048;1252;107720;-41
2023/09/18 23:21:54;;;;;;;41.50;21.00;;;;;;;17.39;71.34;97967.96;435216;1256;98045;-40
2023/09/18 23:32:03;;;;;;;32.40;21.90;;;;;;;17.33;71.67;97962.71;435228;1253;107393;-43
2023/09/18 23:42:08;;;;;;;;;;;;;;;17.31;72.39;97956.70;435226;1256;99858;-43
